Holly, Michigan
Current Conditions -  °F | °C
As of 5:53 PM on Wednesday 17 Dec 2014 (Local Time) from KFNT Reporting Station
Overcast Overcast  
Wind Chill: 18°   Ceiling: 2900
Heat Index: 30°   Visibility: 10mi
Dew Point: 19°   Wind: 20mph
Humidity: 64%   Direction: 280°W
Pressure: 30.09"   Gusts: NA
Location:  42.79°N, 83.63°W
Report Text: KFNT 172253Z 28017KT 10SM OVC029 M01/M07 A3009 RMK AO2 SLP200 T10111072
Loading
Personal Weather Stations






























Interactive Weather Map New forecast layout! Learn more

10-Day Weather Forecast

Advertisements
Track Severe Weather on mobile